createdAt,value
2023-01-07T00:01:36.346Z,1.18
2023-01-07T00:04:06.472Z,1.32
2023-01-07T00:06:40.019Z,1.19
2023-01-07T00:09:11.727Z,0.82
2023-01-07T00:11:41.621Z,0.82
2023-01-07T00:14:12.351Z,0.90
2023-01-07T00:16:41.255Z,0.89
2023-01-07T00:19:13.754Z,0.80
2023-01-07T00:21:42.216Z,0.78
2023-01-07T00:24:11.613Z,0.68
2023-01-07T00:26:40.798Z,0.48
2023-01-07T00:29:09.630Z,0.48
2023-01-07T00:31:39.999Z,0.24
2023-01-07T00:34:09.644Z,0.35
2023-01-07T00:36:46.837Z,0.44
2023-01-07T00:39:17.434Z,0.51
2023-01-07T00:42:06.309Z,0.54
2023-01-07T00:44:34.594Z,0.58
2023-01-07T00:47:02.912Z,0.49
2023-01-07T00:49:30.901Z,0.50
2023-01-07T00:51:59.316Z,0.58
2023-01-07T00:54:27.508Z,0.64
2023-01-07T00:56:55.626Z,0.73
2023-01-07T00:59:23.550Z,0.75
2023-01-07T01:01:52.348Z,0.78
2023-01-07T01:04:20.343Z,0.75
2023-01-07T01:06:48.443Z,0.77
2023-01-07T01:09:16.549Z,0.85
2023-01-07T01:11:46.165Z,0.91
2023-01-07T01:14:14.063Z,0.82
2023-01-07T01:16:42.400Z,0.66
2023-01-07T01:19:10.411Z,0.71
2023-01-07T01:21:41.260Z,0.81
2023-01-07T01:24:09.246Z,0.81
2023-01-07T01:26:37.349Z,0.57
2023-01-07T01:29:08.107Z,0.69
2023-01-07T01:31:36.212Z,0.63
2023-01-07T01:34:04.585Z,0.44
2023-01-07T01:36:32.992Z,0.15
2023-01-07T01:39:01.469Z,-0.03
2023-01-07T01:41:32.737Z,-0.14
2023-01-07T01:44:01.174Z,-0.01
2023-01-07T01:46:38.009Z,-0.04
2023-01-07T01:49:33.736Z,-0.33
2023-01-07T01:52:09.482Z,-0.08
2023-01-07T01:54:37.653Z,0.05
2023-01-07T01:57:09.239Z,0.03
2023-01-07T01:59:41.191Z,-0.03
2023-01-07T02:02:13.161Z,-0.11
2023-01-07T02:04:41.528Z,-0.12
2023-01-07T02:07:15.221Z,-0.10
2023-01-07T02:09:56.935Z,-0.01
2023-01-07T02:13:11.222Z,-0.23
2023-01-07T02:16:01.993Z,-0.16
2023-01-07T02:18:59.856Z,-0.25
2023-01-07T02:21:45.047Z,-0.29
2023-01-07T02:24:36.804Z,-0.35
2023-01-07T02:27:27.097Z,-0.30
2023-01-07T02:30:25.474Z,-0.36
2023-01-07T02:33:02.617Z,-0.24
2023-01-07T02:35:55.373Z,-0.13
2023-01-07T02:39:01.698Z,-0.02
2023-01-07T02:41:44.803Z,-0.07
2023-01-07T02:44:39.234Z,-0.11
2023-01-07T02:47:15.742Z,-0.01
2023-01-07T02:49:43.733Z,-0.13
2023-01-07T02:52:23.982Z,-0.25
2023-01-07T02:55:10.828Z,-0.46
2023-01-07T03:00:03.948Z,-0.31
2023-01-07T03:02:34.666Z,-0.32
2023-01-07T03:05:03.731Z,-0.31
2023-01-07T03:07:58.342Z,-0.32
2023-01-07T03:10:44.084Z,-0.21
2023-01-07T03:13:19.930Z,-0.17
2023-01-07T03:16:00.668Z,-0.27
2023-01-07T03:18:33.035Z,-0.40
2023-01-07T03:21:07.762Z,-0.39
2023-01-07T03:23:39.917Z,-0.57
2023-01-07T03:26:10.375Z,-0.64
2023-01-07T03:28:41.716Z,-0.80
2023-01-07T03:31:14.772Z,-0.73
2023-01-07T03:34:06.743Z,-0.49
2023-01-07T03:36:40.722Z,-0.45
2023-01-07T03:39:13.765Z,-0.67
2023-01-07T03:42:01.360Z,-0.65
2023-01-07T03:44:29.576Z,-0.49
2023-01-07T03:46:59.051Z,-0.40
2023-01-07T03:49:27.046Z,-0.50
2023-01-07T03:51:55.200Z,-0.64
2023-01-07T03:54:24.166Z,-0.72
2023-01-07T03:56:52.055Z,-0.63
2023-01-07T03:59:20.012Z,-0.51
2023-01-07T04:01:48.781Z,-0.75
2023-01-07T04:04:17.432Z,-1.01
2023-01-07T04:06:45.570Z,-1.25
2023-01-07T04:09:19.073Z,-1.07
2023-01-07T04:11:47.940Z,-1.01
2023-01-07T04:14:16.302Z,-0.95
2023-01-07T04:16:44.415Z,-0.99
2023-01-07T04:19:12.457Z,-0.96
2023-01-07T04:21:40.584Z,-0.88
2023-01-07T04:24:08.903Z,-0.97
2023-01-07T04:26:37.926Z,-0.94
2023-01-07T04:29:05.919Z,-0.93
2023-01-07T04:31:34.074Z,-0.88
2023-01-07T04:34:02.167Z,-0.79
2023-01-07T04:36:30.375Z,-0.75
2023-01-07T04:38:58.465Z,-0.80
2023-01-07T04:41:26.851Z,-0.93
2023-01-07T04:43:55.374Z,-0.92
2023-01-07T04:46:23.434Z,-1.05
2023-01-07T04:48:51.661Z,-0.91
2023-01-07T04:51:20.622Z,-0.87
2023-01-07T04:53:48.883Z,-0.89
2023-01-07T04:56:18.317Z,-0.94
2023-01-07T04:58:48.100Z,-0.85
2023-01-07T05:01:16.869Z,-0.77
2023-01-07T05:03:44.941Z,-0.79
2023-01-07T05:06:13.184Z,-0.90
2023-01-07T05:08:42.459Z,-0.86
2023-01-07T05:11:10.438Z,-1.00
2023-01-07T05:13:42.252Z,-0.84
2023-01-07T05:16:10.246Z,-0.85
2023-01-07T05:18:38.836Z,-0.89
2023-01-07T05:21:07.969Z,-0.78
2023-01-07T05:23:37.266Z,-0.79
2023-01-07T05:26:05.797Z,-0.92
2023-01-07T05:28:34.250Z,-1.09
2023-01-07T05:31:03.253Z,-1.05
2023-01-07T05:33:32.433Z,-1.01
2023-01-07T05:36:00.440Z,-1.00
2023-01-07T05:38:29.027Z,-0.98
2023-01-07T05:40:58.752Z,-1.11
2023-01-07T05:43:28.823Z,-1.29
2023-01-07T05:45:57.805Z,-1.33
2023-01-07T05:48:26.123Z,-1.21
2023-01-07T05:50:54.055Z,-1.28
2023-01-07T05:53:22.319Z,-1.38
2023-01-07T05:55:56.339Z,-1.46
2023-01-07T05:58:24.978Z,-1.64
2023-01-07T06:00:53.223Z,-1.60
2023-01-07T06:03:21.644Z,-1.49
2023-01-07T06:05:50.091Z,-1.56
2023-01-07T06:08:18.129Z,-1.45
2023-01-07T06:10:46.100Z,-1.59
2023-01-07T06:13:14.099Z,-1.59
2023-01-07T06:15:42.136Z,-1.34
2023-01-07T06:18:10.462Z,-1.44
2023-01-07T06:20:38.437Z,-1.24
2023-01-07T06:23:06.762Z,-1.18
2023-01-07T06:25:34.880Z,-1.11
2023-01-07T06:28:02.851Z,-1.05
2023-01-07T06:30:30.992Z,-0.96
2023-01-07T06:32:58.908Z,-0.94
2023-01-07T06:35:27.092Z,-1.03
2023-01-07T06:37:55.112Z,-0.97
2023-01-07T06:40:23.667Z,-0.82
2023-01-07T06:42:51.605Z,-0.85
2023-01-07T06:45:19.786Z,-0.70
2023-01-07T06:47:48.810Z,-0.59
2023-01-07T06:50:17.485Z,-0.36
2023-01-07T06:52:45.439Z,-0.38
2023-01-07T06:55:13.375Z,-0.16
2023-01-07T06:57:43.713Z,-0.25
2023-01-07T07:00:12.999Z,-0.27
2023-01-07T07:02:41.066Z,-0.22
2023-01-07T07:05:09.309Z,-0.18
2023-01-07T07:07:37.319Z,-0.16
2023-01-07T07:10:07.868Z,0.30
2023-01-07T07:12:38.095Z,0.54
2023-01-07T07:15:08.541Z,0.59
2023-01-07T07:17:36.562Z,0.62
2023-01-07T07:20:04.893Z,0.77
2023-01-07T07:22:32.869Z,0.85
2023-01-07T07:25:00.782Z,0.96
2023-01-07T07:27:28.753Z,1.01
2023-01-07T07:29:56.752Z,1.33
2023-01-07T07:32:28.716Z,1.27
2023-01-07T07:34:57.201Z,0.95
2023-01-07T07:37:25.372Z,1.12
2023-01-07T07:39:53.635Z,1.62
2023-01-07T07:42:21.619Z,1.85
2023-01-07T07:44:50.500Z,1.85
2023-01-07T07:47:18.572Z,1.85
2023-01-07T07:49:46.584Z,2.56
2023-01-07T07:52:14.505Z,2.69
2023-01-07T07:54:42.967Z,2.89
2023-01-07T07:57:10.931Z,3.04
2023-01-07T07:59:38.838Z,3.06
2023-01-07T08:02:08.847Z,3.31
2023-01-07T08:04:37.101Z,4.26
2023-01-07T08:07:05.274Z,4.18
2023-01-07T08:09:33.363Z,4.15
2023-01-07T08:12:01.302Z,4.62
2023-01-07T08:14:29.923Z,4.02
2023-01-07T08:16:58.087Z,3.65
2023-01-07T08:19:26.074Z,3.28
2023-01-07T08:21:54.379Z,2.96
2023-01-07T08:24:22.681Z,2.84
2023-01-07T08:26:50.871Z,2.76
2023-01-07T08:29:18.828Z,3.00
2023-01-07T08:31:47.100Z,3.09
2023-01-07T08:34:15.608Z,3.03
2023-01-07T08:36:43.950Z,3.10
2023-01-07T08:39:12.959Z,3.50
2023-01-07T08:41:41.343Z,3.84
2023-01-07T08:44:09.960Z,4.03
2023-01-07T08:46:37.986Z,4.22
2023-01-07T08:49:06.431Z,4.50
2023-01-07T08:51:34.520Z,4.61
2023-01-07T08:54:02.885Z,4.84
2023-01-07T08:56:31.160Z,5.27
2023-01-07T08:58:59.928Z,5.69
2023-01-07T09:01:28.473Z,6.12
2023-01-07T09:03:57.032Z,6.57
2023-01-07T09:06:25.389Z,7.09
2023-01-07T09:08:53.526Z,7.57
2023-01-07T09:11:21.484Z,8.78
2023-01-07T09:13:49.637Z,9.08
2023-01-07T09:16:17.718Z,9.39
2023-01-07T09:18:45.776Z,9.93
2023-01-07T09:21:13.903Z,11.03
2023-01-07T09:23:41.883Z,11.88
2023-01-07T09:26:09.989Z,12.28
2023-01-07T09:28:37.915Z,12.84
2023-01-07T09:31:07.364Z,14.14
2023-01-07T09:33:35.410Z,15.47
2023-01-07T09:36:03.338Z,16.18
2023-01-07T09:38:31.859Z,16.48
2023-01-07T09:40:59.905Z,17.80
2023-01-07T09:43:59.319Z,17.69
2023-01-07T09:46:27.234Z,17.96
2023-01-07T09:49:00.372Z,19.52
2023-01-07T09:51:39.579Z,20.98
2023-01-07T09:54:20.471Z,21.33
2023-01-07T09:56:49.060Z,21.64
2023-01-07T09:59:19.299Z,22.03
2023-01-07T10:02:00.304Z,20.85
2023-01-07T10:04:34.752Z,21.15
2023-01-07T10:07:06.205Z,21.70
2023-01-07T10:09:49.596Z,22.14
2023-01-07T10:12:23.566Z,22.07
2023-01-07T10:15:18.534Z,20.98
2023-01-07T10:18:07.425Z,20.60
2023-01-07T10:20:37.830Z,20.40
2023-01-07T10:23:29.018Z,20.19
2023-01-07T10:25:59.640Z,21.03
2023-01-07T10:28:33.674Z,19.78
2023-01-07T10:31:03.979Z,20.33
2023-01-07T10:33:33.995Z,21.16
2023-01-07T10:36:20.948Z,22.33
2023-01-07T10:39:16.683Z,22.33
2023-01-07T10:42:10.852Z,21.05
2023-01-07T10:45:26.133Z,22.35
2023-01-07T10:48:01.210Z,23.63
2023-01-07T10:50:57.745Z,24.22
2023-01-07T10:54:02.746Z,23.79
2023-01-07T10:56:37.400Z,24.58
2023-01-07T10:59:06.063Z,25.13
2023-01-07T11:01:36.237Z,25.48
2023-01-07T11:04:11.717Z,26.64
2023-01-07T11:07:12.103Z,26.86
2023-01-07T11:09:44.716Z,25.86
2023-01-07T11:12:38.930Z,25.08
2023-01-07T11:15:16.732Z,24.69
2023-01-07T11:17:59.710Z,25.98
2023-01-07T11:20:55.854Z,26.12
2023-01-07T11:23:43.786Z,26.82
2023-01-07T11:26:18.555Z,26.64
2023-01-07T11:29:15.630Z,27.30
2023-01-07T11:31:56.345Z,26.84
2023-01-07T11:34:32.412Z,26.23
2023-01-07T11:37:01.354Z,26.61
2023-01-07T11:39:34.995Z,27.03
2023-01-07T11:42:37.728Z,27.17
2023-01-07T11:45:21.449Z,26.66
2023-01-07T11:47:58.519Z,26.23
2023-01-07T11:50:30.652Z,25.90
2023-01-07T11:53:02.741Z,26.28
2023-01-07T11:55:31.277Z,25.55
2023-01-07T11:58:28.459Z,25.95
2023-01-07T12:01:04.739Z,26.06
2023-01-07T12:03:33.362Z,25.74
2023-01-07T12:06:09.505Z,25.80
2023-01-07T12:08:41.829Z,25.52
2023-01-07T12:11:14.575Z,25.64
2023-01-07T12:13:48.534Z,25.99
2023-01-07T12:16:17.882Z,25.99
2023-01-07T12:19:07.440Z,25.18
2023-01-07T12:21:44.551Z,24.53
2023-01-07T12:24:20.175Z,23.81
2023-01-07T12:27:12.944Z,22.51
2023-01-07T12:29:59.664Z,22.25
2023-01-07T12:32:57.527Z,22.27
2023-01-07T12:35:30.819Z,22.05
2023-01-07T12:38:15.778Z,22.34
2023-01-07T12:40:51.955Z,22.06
2023-01-07T12:43:33.144Z,21.54
2023-01-07T12:46:05.794Z,20.36
2023-01-07T12:48:50.872Z,19.86
2023-01-07T12:51:25.195Z,18.98
2023-01-07T12:54:03.083Z,17.51
2023-01-07T12:56:55.548Z,16.49
2023-01-07T12:59:46.018Z,15.66
2023-01-07T13:02:38.701Z,14.70
2023-01-07T13:05:19.756Z,14.33
2023-01-07T13:08:20.671Z,13.60
2023-01-07T13:10:58.864Z,13.64
2023-01-07T13:13:38.103Z,13.17
2023-01-07T13:16:09.929Z,13.11
2023-01-07T13:18:38.894Z,13.08
2023-01-07T13:21:11.420Z,12.79
2023-01-07T13:24:00.880Z,12.31
2023-01-07T13:26:56.500Z,12.09
2023-01-07T13:29:49.237Z,12.00
2023-01-07T13:32:37.883Z,11.73
2023-01-07T13:35:29.356Z,11.53
2023-01-07T13:38:12.606Z,11.36
2023-01-07T13:41:02.025Z,11.30
2023-01-07T13:44:02.551Z,10.95
2023-01-07T13:46:39.704Z,10.81
2023-01-07T13:49:26.762Z,10.69
2023-01-07T13:51:55.575Z,10.57
2023-01-07T14:06:21.675Z,10.22
2023-01-07T14:08:56.782Z,9.83
2023-01-07T14:12:03.416Z,9.75
2023-01-07T14:14:54.501Z,9.80
2023-01-07T14:17:22.794Z,9.69
2023-01-07T14:20:39.773Z,9.63
2023-01-07T14:23:15.960Z,9.50
2023-01-07T14:26:05.515Z,9.44
2023-01-07T14:28:57.020Z,9.19
2023-01-07T14:31:28.941Z,8.92
2023-01-07T14:34:17.796Z,8.89
2023-01-07T14:37:09.348Z,8.90
2023-01-07T14:39:46.604Z,8.83
2023-01-07T14:42:20.439Z,8.59
2023-01-07T14:44:51.471Z,8.59
2023-01-07T14:47:41.920Z,8.22
2023-01-07T14:50:20.729Z,8.43
2023-01-07T14:53:16.927Z,8.39
2023-01-07T14:56:12.448Z,8.48
2023-01-07T14:58:59.115Z,8.32
2023-01-07T15:01:27.760Z,8.06
2023-01-07T15:04:28.651Z,7.98
2023-01-07T15:06:59.143Z,7.90
2023-01-07T15:10:03.910Z,7.92
2023-01-07T15:12:54.115Z,7.72
2023-01-07T15:15:47.533Z,7.73
2023-01-07T15:18:16.639Z,7.48
2023-01-07T15:21:04.880Z,7.45
2023-01-07T15:23:54.612Z,7.35
2023-01-07T15:26:29.000Z,7.18
2023-01-07T15:29:25.705Z,6.94
2023-01-07T15:32:12.176Z,6.97
2023-01-07T15:34:41.033Z,6.93
2023-01-07T15:37:13.874Z,6.85
2023-01-07T15:39:49.843Z,6.69
2023-01-07T15:42:22.586Z,6.62
2023-01-07T15:44:59.061Z,6.58
2023-01-07T15:47:39.508Z,6.57
2023-01-07T15:56:11.982Z,5.77
2023-01-07T15:58:46.389Z,5.74
2023-01-07T16:01:23.621Z,5.77
2023-01-07T16:03:56.256Z,5.73
2023-01-07T16:06:37.039Z,5.71
2023-01-07T16:09:19.173Z,5.61
2023-01-07T16:11:48.049Z,5.59
2023-01-07T16:14:18.919Z,5.46
2023-01-07T16:16:47.933Z,5.53
2023-01-07T16:19:21.427Z,5.50
2023-01-07T16:21:59.793Z,5.22
2023-01-07T16:24:28.613Z,5.01
2023-01-07T16:27:04.902Z,4.98
2023-01-07T16:29:53.354Z,4.96
2023-01-07T16:32:23.217Z,5.00
2023-01-07T16:35:03.123Z,4.95
2023-01-07T16:37:31.886Z,4.88
2023-01-07T16:40:00.690Z,4.91
2023-01-07T16:42:29.043Z,4.76
2023-01-07T16:44:59.330Z,4.78
2023-01-07T16:47:30.132Z,4.65
2023-01-07T16:50:14.988Z,4.70
2023-01-07T16:52:53.851Z,4.68
2023-01-07T16:55:43.565Z,4.62
2023-01-07T16:58:48.994Z,4.61
2023-01-07T17:01:21.900Z,4.44
2023-01-07T17:03:56.982Z,4.36
2023-01-07T17:06:31.079Z,4.34
2023-01-07T17:08:59.679Z,4.33
2023-01-07T17:11:36.338Z,4.29
2023-01-07T17:14:12.402Z,4.22
2023-01-07T17:16:41.464Z,4.04
2023-01-07T17:19:41.314Z,4.07
2023-01-07T17:22:32.712Z,3.98
2023-01-07T17:25:16.846Z,4.04
2023-01-07T17:27:53.608Z,3.96
2023-01-07T17:30:28.043Z,3.68
2023-01-07T17:32:56.410Z,3.68
2023-01-07T17:35:25.934Z,3.50
2023-01-07T17:37:57.136Z,3.41
2023-01-07T17:40:25.757Z,3.57
2023-01-07T17:43:12.644Z,3.57
2023-01-07T17:45:41.131Z,3.49
2023-01-07T17:48:15.098Z,3.56
2023-01-07T18:01:37.971Z,3.30
2023-01-07T18:04:06.013Z,3.26
2023-01-07T18:06:35.947Z,3.08
2023-01-07T18:09:05.247Z,3.08
2023-01-07T18:11:56.131Z,2.84
2023-01-07T18:14:24.808Z,2.75
2023-01-07T18:16:53.251Z,2.63
2023-01-07T18:19:22.003Z,2.58
2023-01-07T18:21:50.323Z,2.48
2023-01-07T18:24:21.055Z,2.64
2023-01-07T18:26:49.657Z,2.66
2023-01-07T18:29:18.149Z,2.63
2023-01-07T18:31:46.663Z,2.69
2023-01-07T18:34:16.413Z,2.78
2023-01-07T18:36:45.046Z,2.84
2023-01-07T18:39:19.900Z,2.88
2023-01-07T18:41:51.786Z,2.63
2023-01-07T18:44:22.829Z,2.58
2023-01-07T18:46:51.515Z,2.57
2023-01-07T18:49:19.917Z,2.54
2023-01-07T18:51:48.832Z,2.69
2023-01-07T18:54:17.034Z,2.65
2023-01-07T18:56:46.103Z,2.53
2023-01-07T18:59:14.495Z,2.47
2023-01-07T19:01:43.291Z,2.45
2023-01-07T19:04:11.913Z,2.49
2023-01-07T19:06:40.361Z,2.35
2023-01-07T19:09:08.904Z,2.13
2023-01-07T19:11:38.676Z,2.22
2023-01-07T19:14:07.314Z,2.26
2023-01-07T19:16:37.726Z,2.24
2023-01-07T19:19:07.220Z,2.25
2023-01-07T19:21:36.151Z,2.21
2023-01-07T19:24:04.934Z,2.20
2023-01-07T19:26:34.527Z,2.20
2023-01-07T19:29:04.501Z,2.27
2023-01-07T19:31:33.138Z,2.14
2023-01-07T19:34:03.275Z,2.10
2023-01-07T19:36:32.708Z,1.96
2023-01-07T19:39:01.469Z,1.76
2023-01-07T19:41:29.930Z,1.79
2023-01-07T19:44:00.135Z,1.70
2023-01-07T19:46:28.691Z,1.87
2023-01-07T19:48:56.990Z,1.93
2023-01-07T19:51:25.461Z,1.83
2023-01-07T19:53:53.772Z,1.92
2023-01-07T19:56:22.194Z,1.98
2023-01-07T19:58:54.238Z,1.92
2023-01-07T20:01:26.803Z,1.95
2023-01-07T20:03:57.703Z,1.86
2023-01-07T20:06:30.261Z,1.78
2023-01-07T20:08:59.238Z,1.65
2023-01-07T20:11:27.928Z,1.45
2023-01-07T20:13:56.438Z,1.39
2023-01-07T20:16:25.478Z,1.46
2023-01-07T20:18:55.863Z,1.45
2023-01-07T20:21:26.283Z,1.46
2023-01-07T20:23:55.526Z,1.42
2023-01-07T20:26:26.037Z,1.38
2023-01-07T20:28:54.843Z,1.34
2023-01-07T20:31:24.825Z,1.36
2023-01-07T20:33:56.250Z,1.36
2023-01-07T20:36:28.001Z,1.36
2023-01-07T20:38:57.287Z,1.32
2023-01-07T20:41:27.742Z,1.18
2023-01-07T20:43:58.926Z,1.30
2023-01-07T20:46:29.683Z,1.19
2023-01-07T20:48:58.740Z,0.97
2023-01-07T20:51:28.065Z,1.07
2023-01-07T20:53:58.366Z,1.11
2023-01-07T20:56:32.405Z,1.17
2023-01-07T20:59:02.069Z,1.15
2023-01-07T21:01:30.612Z,1.17
2023-01-07T21:03:59.617Z,1.05
2023-01-07T21:06:27.788Z,1.12
2023-01-07T21:08:56.157Z,1.15
2023-01-07T21:11:25.548Z,1.07
2023-01-07T21:13:56.613Z,1.04
2023-01-07T21:16:27.854Z,0.72
2023-01-07T21:18:56.592Z,0.57
2023-01-07T21:21:25.812Z,0.54
2023-01-07T21:23:54.588Z,0.65
2023-01-07T21:26:24.057Z,0.68
2023-01-07T21:28:56.368Z,0.37
2023-01-07T21:31:25.750Z,0.38
2023-01-07T21:33:58.524Z,0.48
2023-01-07T21:36:28.590Z,0.58
2023-01-07T21:38:59.364Z,0.61
2023-01-07T21:41:28.908Z,0.48
2023-01-07T21:43:57.232Z,0.48
2023-01-07T21:46:25.318Z,0.24
2023-01-07T21:48:53.423Z,0.39
2023-01-07T21:51:26.689Z,0.26
2023-01-07T21:53:56.649Z,0.21
2023-01-07T21:56:31.523Z,0.34
2023-01-07T21:59:00.285Z,0.38
2023-01-07T22:01:33.536Z,0.47
2023-01-07T22:12:10.838Z,0.69
2023-01-07T22:17:23.293Z,0.59
2023-01-07T22:19:51.453Z,0.60
2023-01-07T22:22:21.107Z,0.68
2023-01-07T22:24:49.080Z,0.54
2023-01-07T22:27:17.355Z,0.68
2023-01-07T22:29:45.727Z,0.46
2023-01-07T22:32:13.718Z,0.43
2023-01-07T22:34:41.910Z,0.52
2023-01-07T22:37:17.832Z,0.50
2023-01-07T22:39:55.854Z,0.12
2023-01-07T22:42:38.100Z,-0.08
2023-01-07T22:45:13.752Z,-0.37
2023-01-07T22:47:47.793Z,-0.33
2023-01-07T22:50:17.221Z,-0.19
2023-01-07T22:52:46.132Z,-0.17
2023-01-07T22:55:14.392Z,-0.12
2023-01-07T22:57:42.741Z,-0.24
2023-01-07T23:00:18.134Z,-0.23
2023-01-07T23:02:46.299Z,-0.30
2023-01-07T23:05:14.259Z,-0.30
2023-01-07T23:07:42.297Z,-0.38
2023-01-07T23:10:10.349Z,-0.28
2023-01-07T23:12:38.439Z,-0.30
2023-01-07T23:15:06.841Z,-0.17
2023-01-07T23:17:34.875Z,-0.23
2023-01-07T23:20:02.795Z,-0.29
2023-01-07T23:22:30.855Z,-0.31
2023-01-07T23:24:58.760Z,-0.32
2023-01-07T23:27:26.781Z,-0.33
2023-01-07T23:29:54.761Z,-0.29
2023-01-07T23:32:22.739Z,-0.32
2023-01-07T23:34:50.921Z,-0.54
2023-01-07T23:37:18.824Z,-0.36
2023-01-07T23:39:47.213Z,-0.38
2023-01-07T23:42:15.140Z,-0.44
2023-01-07T23:44:43.065Z,-0.36
2023-01-07T23:47:11.120Z,-0.44
2023-01-07T23:49:39.158Z,-0.33
2023-01-07T23:52:07.190Z,-0.33
2023-01-07T23:54:35.589Z,-0.38
2023-01-07T23:57:04.059Z,-0.40
2023-01-07T23:59:31.985Z,-0.42
